sensor_id;sensor_type;location;lat;lon;timestamp;pressure;altitude;pressure_sealevel;temperature;humidity
54262;BME280;40174;52.364;6.452;2023-08-07T00:02:21;100789.03;;;14.07;100.00
54262;BME280;40174;52.364;6.452;2023-08-07T00:04:47;100793.53;;;14.07;100.00
54262;BME280;40174;52.364;6.452;2023-08-07T00:07:14;100787.91;;;14.10;100.00
54262;BME280;40174;52.364;6.452;2023-08-07T00:09:41;100795.19;;;14.08;100.00
54262;BME280;40174;52.364;6.452;2023-08-07T00:12:09;100787.81;;;14.02;100.00
54262;BME280;40174;52.364;6.452;2023-08-07T00:14:36;100784.47;;;14.00;100.00
54262;BME280;40174;52.364;6.452;2023-08-07T00:17:03;100780.41;;;13.96;100.00
54262;BME280;40174;52.364;6.452;2023-08-07T00:19:31;100778.47;;;13.98;100.00
54262;BME280;40174;52.364;6.452;2023-08-07T00:21:57;100783.63;;;13.99;100.00
54262;BME280;40174;52.364;6.452;2023-08-07T00:24:24;100780.81;;;14.01;100.00
54262;BME280;40174;52.364;6.452;2023-08-07T00:26:51;100781.50;;;14.03;100.00
54262;BME280;40174;52.364;6.452;2023-08-07T00:29:20;100781.38;;;14.04;100.00
54262;BME280;40174;52.364;6.452;2023-08-07T00:31:46;100779.84;;;14.02;100.00
54262;BME280;40174;52.364;6.452;2023-08-07T00:34:13;100778.31;;;13.99;100.00
54262;BME280;40174;52.364;6.452;2023-08-07T00:36:40;100789.09;;;13.98;100.00
54262;BME280;40174;52.364;6.452;2023-08-07T00:39:06;100785.88;;;13.94;100.00
54262;BME280;40174;52.364;6.452;2023-08-07T00:41:38;100788.38;;;13.96;100.00
54262;BME280;40174;52.364;6.452;2023-08-07T00:44:05;100791.75;;;13.98;100.00
54262;BME280;40174;52.364;6.452;2023-08-07T00:46:35;100785.44;;;13.99;100.00
54262;BME280;40174;52.364;6.452;2023-08-07T00:49:04;100788.09;;;13.99;100.00
54262;BME280;40174;52.364;6.452;2023-08-07T00:51:32;100791.44;;;14.01;100.00
54262;BME280;40174;52.364;6.452;2023-08-07T00:54:00;100790.59;;;14.00;100.00
54262;BME280;40174;52.364;6.452;2023-08-07T00:56:29;100792.56;;;13.98;100.00
54262;BME280;40174;52.364;6.452;2023-08-07T00:58:57;100795.38;;;13.97;100.00
54262;BME280;40174;52.364;6.452;2023-08-07T01:01:24;100793.72;;;13.96;100.00
54262;BME280;40174;52.364;6.452;2023-08-07T01:03:53;100802.81;;;13.93;100.00
54262;BME280;40174;52.364;6.452;2023-08-07T01:06:19;100797.19;;;13.96;100.00
54262;BME280;40174;52.364;6.452;2023-08-07T01:08:47;100801.38;;;13.99;100.00
54262;BME280;40174;52.364;6.452;2023-08-07T01:11:22;100794.53;;;13.96;100.00
54262;BME280;40174;52.364;6.452;2023-08-07T01:13:55;100803.19;;;13.98;100.00
54262;BME280;40174;52.364;6.452;2023-08-07T01:16:29;100800.69;;;13.97;100.00
54262;BME280;40174;52.364;6.452;2023-08-07T01:19:01;100794.25;;;13.99;100.00
54262;BME280;40174;52.364;6.452;2023-08-07T01:21:29;100798.88;;;13.97;100.00
54262;BME280;40174;52.364;6.452;2023-08-07T01:23:57;100804.19;;;13.97;100.00
54262;BME280;40174;52.364;6.452;2023-08-07T01:26:23;100790.91;;;13.97;100.00
54262;BME280;40174;52.364;6.452;2023-08-07T01:28:56;100796.06;;;13.99;100.00
54262;BME280;40174;52.364;6.452;2023-08-07T01:31:25;100797.75;;;14.00;100.00
54262;BME280;40174;52.364;6.452;2023-08-07T01:33:57;100802.50;;;13.96;100.00
54262;BME280;40174;52.364;6.452;2023-08-07T01:36:27;100811.31;;;13.97;100.00
54262;BME280;40174;52.364;6.452;2023-08-07T01:38:57;100806.69;;;13.99;100.00
54262;BME280;40174;52.364;6.452;2023-08-07T01:41:24;100812.00;;;13.99;100.00
54262;BME280;40174;52.364;6.452;2023-08-07T01:43:52;100810.22;;;13.99;100.00
54262;BME280;40174;52.364;6.452;2023-08-07T01:46:19;100808.66;;;13.97;100.00
54262;BME280;40174;52.364;6.452;2023-08-07T01:48:46;100797.50;;;13.93;100.00
54262;BME280;40174;52.364;6.452;2023-08-07T01:51:12;100805.47;;;13.93;100.00
54262;BME280;40174;52.364;6.452;2023-08-07T01:53:39;100802.94;;;13.91;100.00
54262;BME280;40174;52.364;6.452;2023-08-07T01:56:07;100816.78;;;13.95;100.00
54262;BME280;40174;52.364;6.452;2023-08-07T01:58:34;100819.28;;;13.97;100.00
54262;BME280;40174;52.364;6.452;2023-08-07T02:01:00;100825.03;;;13.92;100.00
54262;BME280;40174;52.364;6.452;2023-08-07T02:03:27;100826.16;;;13.89;100.00
54262;BME280;40174;52.364;6.452;2023-08-07T02:05:54;100815.69;;;13.88;100.00
54262;BME280;40174;52.364;6.452;2023-08-07T02:08:20;100817.38;;;13.89;100.00
54262;BME280;40174;52.364;6.452;2023-08-07T02:10:47;100828.97;;;13.88;100.00
54262;BME280;40174;52.364;6.452;2023-08-07T02:13:15;100822.97;;;13.86;100.00
54262;BME280;40174;52.364;6.452;2023-08-07T02:15:42;100821.16;;;13.86;100.00
54262;BME280;40174;52.364;6.452;2023-08-07T02:18:08;100827.88;;;13.81;100.00
54262;BME280;40174;52.364;6.452;2023-08-07T02:20:35;100824.38;;;13.80;100.00
54262;BME280;40174;52.364;6.452;2023-08-07T02:23:02;100835.00;;;13.80;100.00
54262;BME280;40174;52.364;6.452;2023-08-07T02:25:28;100833.31;;;13.89;100.00
54262;BME280;40174;52.364;6.452;2023-08-07T02:27:55;100837.63;;;13.90;100.00
54262;BME280;40174;52.364;6.452;2023-08-07T02:30:23;100825.34;;;13.89;100.00
54262;BME280;40174;52.364;6.452;2023-08-07T02:32:50;100834.97;;;13.90;100.00
54262;BME280;40174;52.364;6.452;2023-08-07T02:35:17;100833.16;;;13.90;100.00
54262;BME280;40174;52.364;6.452;2023-08-07T02:37:43;100826.31;;;13.88;100.00
54262;BME280;40174;52.364;6.452;2023-08-07T02:40:11;100821.84;;;13.88;100.00
54262;BME280;40174;52.364;6.452;2023-08-07T02:42:41;100831.47;;;13.89;100.00
54262;BME280;40174;52.364;6.452;2023-08-07T02:45:08;100823.66;;;13.88;100.00
54262;BME280;40174;52.364;6.452;2023-08-07T02:47:36;100825.63;;;13.86;100.00
54262;BME280;40174;52.364;6.452;2023-08-07T02:50:04;100830.09;;;13.85;100.00
54262;BME280;40174;52.364;6.452;2023-08-07T02:52:30;100825.22;;;13.81;100.00
54262;BME280;40174;52.364;6.452;2023-08-07T02:54:57;100825.63;;;13.76;100.00
54262;BME280;40174;52.364;6.452;2023-08-07T02:57:24;100829.28;;;13.75;100.00
54262;BME280;40174;52.364;6.452;2023-08-07T02:59:51;100835.31;;;13.77;100.00
54262;BME280;40174;52.364;6.452;2023-08-07T03:02:18;100834.59;;;13.75;100.00
54262;BME280;40174;52.364;6.452;2023-08-07T03:04:46;100825.53;;;13.68;100.00
54262;BME280;40174;52.364;6.452;2023-08-07T03:07:12;100828.47;;;13.65;100.00
54262;BME280;40174;52.364;6.452;2023-08-07T03:09:39;100827.06;;;13.61;100.00
54262;BME280;40174;52.364;6.452;2023-08-07T03:12:06;100812.00;;;13.61;100.00
54262;BME280;40174;52.364;6.452;2023-08-07T03:14:34;100827.75;;;13.63;100.00
54262;BME280;40174;52.364;6.452;2023-08-07T03:17:01;100811.00;;;13.62;100.00
54262;BME280;40174;52.364;6.452;2023-08-07T03:19:28;100821.50;;;13.64;100.00
54262;BME280;40174;52.364;6.452;2023-08-07T03:21:56;100819.81;;;13.63;100.00
54262;BME280;40174;52.364;6.452;2023-08-07T03:24:22;100814.66;;;13.61;100.00
54262;BME280;40174;52.364;6.452;2023-08-07T03:26:49;100811.31;;;13.59;100.00
54262;BME280;40174;52.364;6.452;2023-08-07T03:29:16;100813.13;;;13.59;100.00
54262;BME280;40174;52.364;6.452;2023-08-07T03:31:44;100803.75;;;13.55;100.00
54262;BME280;40174;52.364;6.452;2023-08-07T03:34:11;100810.03;;;13.54;100.00
54262;BME280;40174;52.364;6.452;2023-08-07T03:36:38;100811.88;;;13.53;100.00
54262;BME280;40174;52.364;6.452;2023-08-07T03:39:06;100811.88;;;13.53;100.00
54262;BME280;40174;52.364;6.452;2023-08-07T03:41:33;100810.72;;;13.56;100.00
54262;BME280;40174;52.364;6.452;2023-08-07T03:43:59;100816.19;;;13.54;100.00
54262;BME280;40174;52.364;6.452;2023-08-07T03:46:26;100816.19;;;13.54;100.00
54262;BME280;40174;52.364;6.452;2023-08-07T03:48:53;100804.59;;;13.55;100.00
54262;BME280;40174;52.364;6.452;2023-08-07T03:51:20;100804.88;;;13.52;100.00
54262;BME280;40174;52.364;6.452;2023-08-07T03:53:50;100809.63;;;13.48;100.00
54262;BME280;40174;52.364;6.452;2023-08-07T03:56:18;100807.94;;;13.47;100.00
54262;BME280;40174;52.364;6.452;2023-08-07T03:58:45;100807.69;;;13.50;100.00
54262;BME280;40174;52.364;6.452;2023-08-07T04:01:12;100802.50;;;13.49;100.00
54262;BME280;40174;52.364;6.452;2023-08-07T04:03:40;100805.72;;;13.52;100.00
54262;BME280;40174;52.364;6.452;2023-08-07T04:06:07;100811.16;;;13.51;100.00
54262;BME280;40174;52.364;6.452;2023-08-07T04:08:33;100802.78;;;13.56;100.00
54262;BME280;40174;52.364;6.452;2023-08-07T04:11:01;100797.47;;;13.56;100.00
54262;BME280;40174;52.364;6.452;2023-08-07T04:13:30;100805.44;;;13.56;100.00
54262;BME280;40174;52.364;6.452;2023-08-07T04:15:57;100807.25;;;13.55;100.00
54262;BME280;40174;52.364;6.452;2023-08-07T04:18:26;100807.81;;;13.59;100.00
54262;BME280;40174;52.364;6.452;2023-08-07T04:20:55;100803.47;;;13.58;100.00
54262;BME280;40174;52.364;6.452;2023-08-07T04:23:22;100804.03;;;13.61;100.00
54262;BME280;40174;52.364;6.452;2023-08-07T04:25:49;100810.03;;;13.63;100.00
54262;BME280;40174;52.364;6.452;2023-08-07T04:28:16;100808.91;;;13.66;100.00
54262;BME280;40174;52.364;6.452;2023-08-07T04:30:45;100810.03;;;13.63;100.00
54262;BME280;40174;52.364;6.452;2023-08-07T04:33:15;100822.19;;;13.66;100.00
54262;BME280;40174;52.364;6.452;2023-08-07T04:35:41;100819.66;;;13.64;100.00
54262;BME280;40174;52.364;6.452;2023-08-07T04:38:08;100823.84;;;13.67;100.00
54262;BME280;40174;52.364;6.452;2023-08-07T04:40:34;100829.28;;;13.65;100.00
54262;BME280;40174;52.364;6.452;2023-08-07T04:43:01;100828.91;;;13.70;100.00
54262;BME280;40174;52.364;6.452;2023-08-07T04:45:28;100826.06;;;13.71;100.00
54262;BME280;40174;52.364;6.452;2023-08-07T04:47:56;100829.72;;;13.70;100.00
54262;BME280;40174;52.364;6.452;2023-08-07T04:50:22;100833.06;;;13.72;100.00
54262;BME280;40174;52.364;6.452;2023-08-07T04:52:49;100833.34;;;13.69;100.00
54262;BME280;40174;52.364;6.452;2023-08-07T04:55:16;100840.75;;;13.76;100.00
54262;BME280;40174;52.364;6.452;2023-08-07T04:57:42;100840.34;;;13.70;100.00
54262;BME280;40174;52.364;6.452;2023-08-07T05:00:10;100836.44;;;13.75;100.00
54262;BME280;40174;52.364;6.452;2023-08-07T05:02:37;100845.22;;;13.75;100.00
54262;BME280;40174;52.364;6.452;2023-08-07T05:05:06;100851.25;;;13.77;100.00
54262;BME280;40174;52.364;6.452;2023-08-07T05:07:34;100853.59;;;13.80;100.00
54262;BME280;40174;52.364;6.452;2023-08-07T05:10:01;100858.34;;;13.86;100.00
54262;BME280;40174;52.364;6.452;2023-08-07T05:12:28;100858.22;;;13.88;100.00
54262;BME280;40174;52.364;6.452;2023-08-07T05:14:55;100858.03;;;13.89;100.00
54262;BME280;40174;52.364;6.452;2023-08-07T05:17:21;100869.38;;;13.91;100.00
54262;BME280;40174;52.364;6.452;2023-08-07T05:19:48;100859.88;;;13.89;100.00
54262;BME280;40174;52.364;6.452;2023-08-07T05:22:16;100871.50;;;13.88;100.00
54262;BME280;40174;52.364;6.452;2023-08-07T05:24:43;100872.59;;;13.85;100.00
54262;BME280;40174;52.364;6.452;2023-08-07T05:27:11;100877.78;;;13.87;100.00
54262;BME280;40174;52.364;6.452;2023-08-07T05:29:37;100873.16;;;13.89;100.00
54262;BME280;40174;52.364;6.452;2023-08-07T05:32:09;100888.78;;;13.92;100.00
54262;BME280;40174;52.364;6.452;2023-08-07T05:34:36;100894.81;;;13.94;100.00
54262;BME280;40174;52.364;6.452;2023-08-07T05:37:03;100886.13;;;13.92;100.00
54262;BME280;40174;52.364;6.452;2023-08-07T05:39:31;100897.34;;;13.96;100.00
54262;BME280;40174;52.364;6.452;2023-08-07T05:41:58;100894.53;;;13.97;100.00
54262;BME280;40174;52.364;6.452;2023-08-07T05:44:25;100895.78;;;14.03;100.00
54262;BME280;40174;52.364;6.452;2023-08-07T05:46:51;100899.13;;;14.05;100.00
54262;BME280;40174;52.364;6.452;2023-08-07T05:49:18;100900.81;;;14.06;100.00
54262;BME280;40174;52.364;6.452;2023-08-07T05:51:46;100901.66;;;14.06;100.00
54262;BME280;40174;52.364;6.452;2023-08-07T05:54:12;100907.66;;;14.08;100.00
54262;BME280;40174;52.364;6.452;2023-08-07T05:56:41;100912.28;;;14.06;100.00
54262;BME280;40174;52.364;6.452;2023-08-07T05:59:07;100910.44;;;14.07;100.00
54262;BME280;40174;52.364;6.452;2023-08-07T06:01:34;100919.25;;;14.07;100.00
54262;BME280;40174;52.364;6.452;2023-08-07T06:04:02;100921.22;;;14.05;100.00
54262;BME280;40174;52.364;6.452;2023-08-07T06:06:29;100926.00;;;14.02;100.00
54262;BME280;40174;52.364;6.452;2023-08-07T06:08:59;100923.34;;;14.02;100.00
54262;BME280;40174;52.364;6.452;2023-08-07T06:11:26;100925.13;;;14.01;100.00
54262;BME280;40174;52.364;6.452;2023-08-07T06:13:54;100931.72;;;14.07;100.00
54262;BME280;40174;52.364;6.452;2023-08-07T06:16:21;100928.91;;;14.08;100.00
54262;BME280;40174;52.364;6.452;2023-08-07T06:18:47;100940.25;;;14.10;100.00
54262;BME280;40174;52.364;6.452;2023-08-07T06:21:14;100941.91;;;14.11;100.00
54262;BME280;40174;52.364;6.452;2023-08-07T06:23:41;100946.78;;;14.16;100.00
54262;BME280;40174;52.364;6.452;2023-08-07T06:26:08;100951.13;;;14.27;100.00
54262;BME280;40174;52.364;6.452;2023-08-07T06:28:35;100962.00;;;14.33;100.00
54262;BME280;40174;52.364;6.452;2023-08-07T06:31:04;100964.50;;;14.45;100.00
54262;BME280;40174;52.364;6.452;2023-08-07T06:33:31;100955.06;;;14.50;100.00
54262;BME280;40174;52.364;6.452;2023-08-07T06:35:58;100972.47;;;14.45;100.00
54262;BME280;40174;52.364;6.452;2023-08-07T06:38:25;100976.69;;;14.38;100.00
54262;BME280;40174;52.364;6.452;2023-08-07T06:40:52;100981.75;;;14.31;100.00
54262;BME280;40174;52.364;6.452;2023-08-07T06:43:19;100982.88;;;14.28;100.00
54262;BME280;40174;52.364;6.452;2023-08-07T06:45:46;100985.66;;;14.27;100.00
54262;BME280;40174;52.364;6.452;2023-08-07T06:48:15;100987.78;;;14.13;100.00
54262;BME280;40174;52.364;6.452;2023-08-07T06:50:41;100997.72;;;14.11;100.00
54262;BME280;40174;52.364;6.452;2023-08-07T06:53:08;100993.69;;;14.17;100.00
54262;BME280;40174;52.364;6.452;2023-08-07T06:55:35;100992.13;;;14.14;100.00
54262;BME280;40174;52.364;6.452;2023-08-07T06:58:01;100997.72;;;14.11;100.00
54262;BME280;40174;52.364;6.452;2023-08-07T07:00:28;101001.91;;;14.14;100.00
54262;BME280;40174;52.364;6.452;2023-08-07T07:02:55;100997.88;;;14.20;100.00
54262;BME280;40174;52.364;6.452;2023-08-07T07:05:23;101002.75;;;14.24;100.00
54262;BME280;40174;52.364;6.452;2023-08-07T07:07:50;101006.63;;;14.30;100.00
54262;BME280;40174;52.364;6.452;2023-08-07T07:10:16;101008.03;;;14.34;100.00
54262;BME280;40174;52.364;6.452;2023-08-07T07:12:43;101015.19;;;14.33;100.00
54262;BME280;40174;52.364;6.452;2023-08-07T07:15:10;101026.34;;;14.37;100.00
54262;BME280;40174;52.364;6.452;2023-08-07T07:17:37;101014.19;;;14.44;100.00
54262;BME280;40174;52.364;6.452;2023-08-07T07:20:04;101016.53;;;14.57;100.00
54262;BME280;40174;52.364;6.452;2023-08-07T07:22:33;101025.47;;;14.66;100.00
54262;BME280;40174;52.364;6.452;2023-08-07T07:24:59;101027.56;;;14.72;100.00
54262;BME280;40174;52.364;6.452;2023-08-07T07:27:26;101025.03;;;14.80;100.00
54262;BME280;40174;52.364;6.452;2023-08-07T07:29:53;101035.50;;;14.82;100.00
54262;BME280;40174;52.364;6.452;2023-08-07T07:32:19;101042.59;;;14.91;100.00
54262;BME280;40174;52.364;6.452;2023-08-07T07:34:46;101043.41;;;15.01;100.00
54262;BME280;40174;52.364;6.452;2023-08-07T07:37:13;101035.47;;;14.91;100.00
54262;BME280;40174;52.364;6.452;2023-08-07T07:39:43;101050.84;;;14.97;100.00
54262;BME280;40174;52.364;6.452;2023-08-07T07:42:10;101050.66;;;15.09;100.00
54262;BME280;40174;52.364;6.452;2023-08-07T07:44:36;101059.88;;;15.14;100.00
54262;BME280;40174;52.364;6.452;2023-08-07T07:47:05;101065.91;;;15.16;100.00
54262;BME280;40174;52.364;6.452;2023-08-07T07:49:33;101054.38;;;15.26;100.00
54262;BME280;40174;52.364;6.452;2023-08-07T07:51:59;101059.56;;;15.27;100.00
54262;BME280;40174;52.364;6.452;2023-08-07T07:54:28;101069.91;;;15.30;100.00
54262;BME280;40174;52.364;6.452;2023-08-07T07:56:56;101076.16;;;15.39;100.00
54262;BME280;40174;52.364;6.452;2023-08-07T07:59:23;101077.03;;;15.57;100.00
54262;BME280;40174;52.364;6.452;2023-08-07T08:01:49;101076.81;;;15.69;100.00
54262;BME280;40174;52.364;6.452;2023-08-07T08:04:16;101081.47;;;15.67;100.00
54262;BME280;40174;52.364;6.452;2023-08-07T08:06:43;101085.41;;;15.72;100.00
54262;BME280;40174;52.364;6.452;2023-08-07T08:09:10;101095.47;;;15.78;100.00
54262;BME280;40174;52.364;6.452;2023-08-07T08:11:36;101091.25;;;15.76;100.00
54262;BME280;40174;52.364;6.452;2023-08-07T08:14:04;101089.06;;;15.62;100.00
54262;BME280;40174;52.364;6.452;2023-08-07T08:16:31;101102.59;;;15.50;100.00
54262;BME280;40174;52.364;6.452;2023-08-07T08:18:57;101108.94;;;15.39;100.00
54262;BME280;40174;52.364;6.452;2023-08-07T08:21:24;101109.78;;;15.40;100.00
54262;BME280;40174;52.364;6.452;2023-08-07T08:23:51;101112.66;;;15.29;100.00
54262;BME280;40174;52.364;6.452;2023-08-07T08:26:17;101115.16;;;15.30;100.00
54262;BME280;40174;52.364;6.452;2023-08-07T08:28:44;101109.97;;;15.29;100.00
54262;BME280;40174;52.364;6.452;2023-08-07T08:31:12;101108.19;;;15.20;100.00
54262;BME280;40174;52.364;6.452;2023-08-07T08:33:38;101114.91;;;15.24;100.00
54262;BME280;40174;52.364;6.452;2023-08-07T08:36:05;101115.72;;;15.34;100.00
54262;BME280;40174;52.364;6.452;2023-08-07T08:38:32;101113.56;;;15.47;100.00
54262;BME280;40174;52.364;6.452;2023-08-07T08:41:02;101110.34;;;15.71;100.00
54262;BME280;40174;52.364;6.452;2023-08-07T08:43:30;101113.50;;;15.85;100.00
54262;BME280;40174;52.364;6.452;2023-08-07T08:46:00;101112.59;;;16.12;100.00
54262;BME280;40174;52.364;6.452;2023-08-07T08:48:30;101101.31;;;16.36;100.00
54262;BME280;40174;52.364;6.452;2023-08-07T08:51:01;101121.19;;;16.59;100.00
54262;BME280;40174;52.364;6.452;2023-08-07T08:53:30;101112.75;;;16.72;100.00
54262;BME280;40174;52.364;6.452;2023-08-07T08:55:57;101119.75;;;16.91;100.00
54262;BME280;40174;52.364;6.452;2023-08-07T08:58:25;101121.19;;;16.86;100.00
54262;BME280;40174;52.364;6.452;2023-08-07T09:00:52;101127.09;;;16.71;100.00
54262;BME280;40174;52.364;6.452;2023-08-07T09:03:19;101117.59;;;16.51;100.00
54262;BME280;40174;52.364;6.452;2023-08-07T09:05:48;101123.56;;;16.45;100.00
54262;BME280;40174;52.364;6.452;2023-08-07T09:08:16;101127.38;;;16.42;100.00
54262;BME280;40174;52.364;6.452;2023-08-07T09:10:43;101125.03;;;16.39;100.00
54262;BME280;40174;52.364;6.452;2023-08-07T09:13:14;101137.03;;;16.43;100.00
54262;BME280;40174;52.364;6.452;2023-08-07T09:15:43;101143.53;;;16.40;100.00
54262;BME280;40174;52.364;6.452;2023-08-07T09:18:13;101148.75;;;16.68;100.00
54262;BME280;40174;52.364;6.452;2023-08-07T09:20:40;101134.88;;;16.82;100.00
54262;BME280;40174;52.364;6.452;2023-08-07T09:23:08;101132.31;;;16.99;100.00
54262;BME280;40174;52.364;6.452;2023-08-07T09:25:35;101136.22;;;17.13;100.00
54262;BME280;40174;52.364;6.452;2023-08-07T09:28:02;101138.59;;;17.24;100.00
54262;BME280;40174;52.364;6.452;2023-08-07T09:30:31;101147.56;;;17.15;100.00
54262;BME280;40174;52.364;6.452;2023-08-07T09:32:58;101157.91;;;17.10;100.00
54262;BME280;40174;52.364;6.452;2023-08-07T09:35:25;101151.25;;;17.14;100.00
54262;BME280;40174;52.364;6.452;2023-08-07T09:37:53;101155.50;;;17.24;100.00
54262;BME280;40174;52.364;6.452;2023-08-07T09:40:22;101157.69;;;17.29;100.00
54262;BME280;40174;52.364;6.452;2023-08-07T09:42:50;101156.75;;;17.12;100.00
54262;BME280;40174;52.364;6.452;2023-08-07T09:45:21;101174.25;;;17.07;100.00
54262;BME280;40174;52.364;6.452;2023-08-07T09:47:58;101164.75;;;17.12;100.00
54262;BME280;40174;52.364;6.452;2023-08-07T09:50:25;101177.63;;;17.17;98.93
54262;BME280;40174;52.364;6.452;2023-08-07T09:52:52;101170.72;;;17.06;97.29
54262;BME280;40174;52.364;6.452;2023-08-07T09:55:19;101179.00;;;16.95;95.16
54262;BME280;40174;52.364;6.452;2023-08-07T09:57:48;101180.69;;;16.78;97.68
54262;BME280;40174;52.364;6.452;2023-08-07T10:00:15;101181.00;;;16.93;100.00
54262;BME280;40174;52.364;6.452;2023-08-07T10:02:46;101180.72;;;17.30;100.00
54262;BME280;40174;52.364;6.452;2023-08-07T10:05:13;101184.88;;;17.59;100.00
54262;BME280;40174;52.364;6.452;2023-08-07T10:07:40;101182.38;;;17.92;99.30
54262;BME280;40174;52.364;6.452;2023-08-07T10:10:08;101190.75;;;18.05;98.12
54262;BME280;40174;52.364;6.452;2023-08-07T10:12:36;101182.91;;;18.20;93.24
54262;BME280;40174;52.364;6.452;2023-08-07T10:15:05;101188.66;;;18.41;93.76
54262;BME280;40174;52.364;6.452;2023-08-07T10:17:32;101188.97;;;18.30;78.13
54262;BME280;40174;52.364;6.452;2023-08-07T10:19:59;101194.63;;;18.19;79.53
54262;BME280;40174;52.364;6.452;2023-08-07T10:22:29;101199.44;;;18.07;84.54
54262;BME280;40174;52.364;6.452;2023-08-07T10:24:58;101193.81;;;17.76;86.40
54262;BME280;40174;52.364;6.452;2023-08-07T10:27:26;101202.06;;;17.56;87.94
54262;BME280;40174;52.364;6.452;2023-08-07T10:29:54;101201.25;;;17.56;89.46
54262;BME280;40174;52.364;6.452;2023-08-07T10:32:25;101211.72;;;17.49;94.53
54262;BME280;40174;52.364;6.452;2023-08-07T10:34:53;101213.50;;;17.40;93.34
54262;BME280;40174;52.364;6.452;2023-08-07T10:37:39;101212.75;;;17.22;94.87
54262;BME280;40174;52.364;6.452;2023-08-07T10:40:07;101230.91;;;17.18;97.15
54262;BME280;40174;52.364;6.452;2023-08-07T10:42:57;101235.59;;;16.98;100.00
54262;BME280;40174;52.364;6.452;2023-08-07T10:45:26;101237.56;;;16.78;100.00
54262;BME280;40174;52.364;6.452;2023-08-07T10:48:01;101237.50;;;16.88;100.00
54262;BME280;40174;52.364;6.452;2023-08-07T10:50:29;101242.56;;;16.91;100.00
54262;BME280;40174;52.364;6.452;2023-08-07T10:52:56;101244.03;;;17.12;99.65
54262;BME280;40174;52.364;6.452;2023-08-07T10:55:25;101245.66;;;17.31;100.00
54262;BME280;40174;52.364;6.452;2023-08-07T10:57:53;101245.16;;;17.27;100.00
54262;BME280;40174;52.364;6.452;2023-08-07T11:00:25;101247.72;;;17.37;100.00
54262;BME280;40174;52.364;6.452;2023-08-07T11:02:52;101248.59;;;17.45;96.78
54262;BME280;40174;52.364;6.452;2023-08-07T11:05:20;101251.41;;;17.70;92.44
54262;BME280;40174;52.364;6.452;2023-08-07T11:07:51;101257.88;;;17.85;94.68
54262;BME280;40174;52.364;6.452;2023-08-07T11:10:20;101251.63;;;17.77;94.31
54262;BME280;40174;52.364;6.452;2023-08-07T11:12:46;101265.31;;;17.74;96.49
54262;BME280;40174;52.364;6.452;2023-08-07T11:15:13;101262.25;;;17.69;94.88
54262;BME280;40174;52.364;6.452;2023-08-07T11:17:40;101263.91;;;17.61;96.74
54262;BME280;40174;52.364;6.452;2023-08-07T11:20:09;101260.06;;;17.64;97.34
54262;BME280;40174;52.364;6.452;2023-08-07T11:22:39;101248.41;;;17.73;97.80
54262;BME280;40174;52.364;6.452;2023-08-07T11:25:07;101244.94;;;17.81;96.19
54262;BME280;40174;52.364;6.452;2023-08-07T11:27:39;101257.56;;;17.97;92.77
54262;BME280;40174;52.364;6.452;2023-08-07T11:30:11;101255.78;;;18.14;93.23
54262;BME280;40174;52.364;6.452;2023-08-07T11:32:38;101255.16;;;18.20;89.29
54262;BME280;40174;52.364;6.452;2023-08-07T11:35:06;101258.88;;;18.35;90.48
54262;BME280;40174;52.364;6.452;2023-08-07T11:37:33;101254.72;;;18.41;91.80
54262;BME280;40174;52.364;6.452;2023-08-07T11:40:02;101263.38;;;18.35;92.40
54262;BME280;40174;52.364;6.452;2023-08-07T11:42:29;101250.66;;;18.28;88.82
54262;BME280;40174;52.364;6.452;2023-08-07T11:44:56;101264.09;;;18.02;92.01
54262;BME280;40174;52.364;6.452;2023-08-07T11:47:25;101260.25;;;17.97;92.66
54262;BME280;40174;52.364;6.452;2023-08-07T11:49:55;101250.03;;;17.92;94.37
54262;BME280;40174;52.364;6.452;2023-08-07T11:52:21;101270.06;;;17.88;89.19
54262;BME280;40174;52.364;6.452;2023-08-07T11:54:50;101268.56;;;17.85;88.11
54262;BME280;40174;52.364;6.452;2023-08-07T11:57:21;101268.56;;;17.85;86.74
54262;BME280;40174;52.364;6.452;2023-08-07T11:59:49;101262.94;;;17.97;88.72
54262;BME280;40174;52.364;6.452;2023-08-07T12:02:16;101259.50;;;18.21;86.15
54262;BME280;40174;52.364;6.452;2023-08-07T12:04:43;101263.72;;;18.40;88.07
54262;BME280;40174;52.364;6.452;2023-08-07T12:07:10;101271.59;;;18.41;84.19
54262;BME280;40174;52.364;6.452;2023-08-07T12:09:37;101279.97;;;18.46;82.88
54262;BME280;40174;52.364;6.452;2023-08-07T12:12:06;101279.44;;;18.35;80.72
54262;BME280;40174;52.364;6.452;2023-08-07T12:14:35;101288.06;;;18.20;84.83
54262;BME280;40174;52.364;6.452;2023-08-07T12:17:02;101284.47;;;18.54;82.03
54262;BME280;40174;52.364;6.452;2023-08-07T12:19:38;101283.22;;;18.83;81.62
54262;BME280;40174;52.364;6.452;2023-08-07T12:22:10;101284.75;;;19.26;82.73
54262;BME280;40174;52.364;6.452;2023-08-07T12:24:37;101287.41;;;19.26;79.84
54262;BME280;40174;52.364;6.452;2023-08-07T12:27:04;101288.44;;;19.09;76.18
54262;BME280;40174;52.364;6.452;2023-08-07T12:29:31;101280.72;;;18.89;79.16
54262;BME280;40174;52.364;6.452;2023-08-07T12:31:59;101276.53;;;18.79;77.90
54262;BME280;40174;52.364;6.452;2023-08-07T12:34:27;101279.56;;;19.00;77.95
54262;BME280;40174;52.364;6.452;2023-08-07T12:36:54;101275.19;;;19.07;76.24
54262;BME280;40174;52.364;6.452;2023-08-07T12:39:21;101278.06;;;19.06;77.99
54262;BME280;40174;52.364;6.452;2023-08-07T12:41:47;101277.91;;;18.99;77.96
54262;BME280;40174;52.364;6.452;2023-08-07T12:44:15;101285.25;;;18.89;72.10
54262;BME280;40174;52.364;6.452;2023-08-07T12:46:41;101286.25;;;18.80;74.09